Clifton, NJ

6:56 AM EDT on September 16, 2014 (GMT -0400)
Newark International | Change Station
CLOSE
Current Station
Airport
Location: Newark,
Elevation: 30 ft
Nearby Weather Stations

Elev 30 ft 40.68 °N, 74.17 °W | Updated 5 minutes ago

Clear
Clear
62 °F
Feels Like 62 °F
N
0
Wind Variable Wind from North

Today
High -- | Low -- °F
--% Chance of Precip.
Yesterday
High -- | Low -- °F
Precip. -- in
6:38 AM 7:03 PM
Waning Gibbous, 46% visible
Pressure 30.00 in
Visibility 10.0 miles
Clouds Few 4500 ft
Mostly Cloudy 7500 ft
Mostly Cloudy 17000 ft
Mostly Cloudy 25000 ft
Dew Point 55 °F
Humidity 78%
Rainfall 0.00 in
Snow Depth Not available.
UV 0 out of 12
Pollen 3.30 out of 12
Air Quality Not available.
Flu Activity Not available.
METAR KEWR 161051Z 00000KT 10SM FEW045 BKN075 BKN170 BKN250 17/13 A3000 RMK AO2 SLP157 T01670128

More Conditions Fewer Conditions

Pressure 30.00 in
Visibility 10.0 miles
Clouds Few 4500 ft
Mostly Cloudy 7500 ft
Mostly Cloudy 17000 ft
Mostly Cloudy 25000 ft
Dew Point 55 °F
Humidity 78%
Rainfall 0.00 in
Snow Depth Not available.
UV 0 out of 12
Pollen 3.30 out of 12
Air Quality Not available.
Flu Activity Not available.
METAR KEWR 161051Z 00000KT 10SM FEW045 BKN075 BKN170 BKN250 17/13 A3000 RMK AO2 SLP157 T01670128

More Conditions Fewer Conditions

10-Day Weather Forecast

Almanac

Astronomy

Sep. 16, 2014 Rise Set
Actual Time 6:38 AM EDT 7:03 PM EDT
Civil Twilight 6:10 AM EDT 7:31 PM EDT
Nautical Twilight 5:38 AM EDT 8:03 PM EDT
Astronomical Twilight 5:04 AM EDT 8:36 PM EDT
Moon No Moon Rise 2:27 PM EDT
Length of Visible Light 13h 20m
Length of Day
12h 25m
Tomorrow will be 2m 40s shorter.
Waning Gibbous, 46% of the Moon is Illuminated
Today
Waning Gibbous
Sep 24
New
Oct 1
First Quarter
Oct 8
Full
Oct 15
Last Quarter

Today's Extremes

State Highs State Lows

Community

WunderPhotos

Upload Photos

1,753,720 photos uploaded!

WunderBlogs® & News

Nearby

Snow Depth

Station Depth Elevation
No new snow has been reported.

Earthquake Activity

City Distance Mag. Time & Date
No recent earthquake activity has been reported nearby.
Minimum magnitude displayed is 2.5.

Coastal Water Temperatures

Place Temperature
Sandy Hook, NJ 69.1 °F
The Battery, NY 71.1 °F
Bergen Point West Reach, NJ 71.1 °F
Kings Point, NY 70.0 °F

Nearby Weather Stations